Time;durP1;ratioP1;P1;durP2;ratioP2;P2;SDS_P1;SDS_P2;PMS_P1;PMS_P2;Temp;Humidity;BMP_temperature;BMP_pressure;BME280_temperature;BME280_humidity;BME280_pressure;Samples;Min_cycle;Max_cycle;Signal;HPM_P1;HPM_P2
2021/09/07 00:00:41;;;;;;;;;15.25;15.25;;;;;25.56;41.94;101880.75;5018508;28;45543;-90
2021/09/07 00:03:06;;;;;;;;;14.75;12.75;;;;;25.52;42.26;101886.97;5018919;28;45276;-90
2021/09/07 00:05:32;;;;;;;;;15.00;13.25;;;;;25.46;42.15;101874.59;5027952;28;46009;-92
2021/09/07 00:07:58;;;;;;;;;14.50;12.50;;;;;25.45;42.33;101877.22;5040297;28;45378;-88
2021/09/07 00:10:23;;;;;;;;;13.00;13.00;;;;;25.45;42.64;101885.19;5020765;28;45372;-89
2021/09/07 00:12:49;;;;;;;;;14.75;14.25;;;;;25.44;42.45;101883.41;5025282;28;45441;-91
2021/09/07 00:15:18;;;;;;;;;17.00;15.50;;;;;25.40;42.09;101877.22;5027651;28;46163;-92
2021/09/07 00:17:45;;;;;;;;;15.75;12.50;;;;;25.40;42.39;101886.94;5029834;28;45327;-90
2021/09/07 00:20:11;;;;;;;;;20.00;16.50;;;;;25.38;42.47;101881.59;5024634;28;45200;-92
2021/09/07 00:22:37;;;;;;;;;14.75;12.50;;;;;25.35;42.04;101882.50;5021629;28;45449;-93
2021/09/07 00:25:05;;;;;;;;;12.50;11.25;;;;;25.35;42.84;101879.84;5022759;28;45352;-93
2021/09/07 00:27:31;;;;;;;;;14.75;14.00;;;;;25.33;42.71;101880.75;5046185;28;45450;-85
2021/09/07 00:29:56;;;;;;;;;19.00;15.25;;;;;25.30;42.65;101871.03;5034089;28;44729;-90
2021/09/07 00:32:22;;;;;;;;;15.75;12.00;;;;;25.27;42.36;101875.44;5019463;28;45354;-89
2021/09/07 00:34:48;;;;;;;;;18.75;15.50;;;;;25.27;43.02;101878.09;5017560;28;46226;-90
2021/09/07 00:37:13;;;;;;;;;18.25;16.25;;;;;25.24;42.80;101868.34;5017734;28;45279;-90
2021/09/07 00:39:39;;;;;;;;;16.75;15.75;;;;;25.21;42.92;101862.16;5023140;28;45255;-92
2021/09/07 00:42:04;;;;;;;;;18.00;15.00;;;;;25.19;43.21;101876.31;5026461;28;45359;-91
2021/09/07 00:44:30;;;;;;;;;15.00;13.50;;;;;25.19;42.33;101867.47;5022304;28;45304;-85
2021/09/07 00:47:01;;;;;;;;;15.25;14.50;;;;;25.18;43.01;101871.00;5017026;28;45280;-88
2021/09/07 00:49:29;;;;;;;;;15.50;15.00;;;;;25.17;42.58;101872.75;5020317;28;45360;-86
2021/09/07 00:51:55;;;;;;;;;17.25;15.75;;;;;25.11;42.94;101863.91;5039889;28;45508;-86
2021/09/07 00:54:26;;;;;;;;;17.50;15.25;;;;;25.12;43.13;101857.75;5039527;28;46154;-86
2021/09/07 00:56:53;;;;;;;;;17.50;15.25;;;;;25.08;43.23;101859.50;5038710;28;45780;-88
2021/09/07 00:59:20;;;;;;;;;15.25;14.25;;;;;25.05;43.23;101856.88;5037846;28;45283;-85
2021/09/07 01:01:45;;;;;;;;;15.00;14.75;;;;;25.04;42.96;101855.09;5039966;28;45536;-86
2021/09/07 01:04:11;;;;;;;;;14.50;14.50;;;;;25.00;43.54;101850.69;5042076;28;45818;-89
2021/09/07 01:06:36;;;;;;;;;13.00;12.25;;;;;24.97;43.19;101848.91;5040393;28;45349;-84
2021/09/07 01:09:02;;;;;;;;;15.00;15.00;;;;;24.96;43.36;101844.50;5036876;28;45287;-82
2021/09/07 01:11:28;;;;;;;;;16.25;15.00;;;;;24.95;43.47;101841.81;5036634;28;45260;-82
2021/09/07 01:13:54;;;;;;;;;11.75;11.75;;;;;24.90;43.26;101846.25;5035730;28;45649;-82
2021/09/07 01:16:19;;;;;;;;;12.50;12.00;;;;;24.83;43.21;101843.59;5036637;28;45783;-83
2021/09/07 01:18:45;;;;;;;;;16.50;12.75;;;;;24.81;43.65;101836.50;5034179;28;45325;-88
2021/09/07 01:21:12;;;;;;;;;14.00;11.25;;;;;24.81;43.35;101841.81;5020057;28;45285;-92
2021/09/07 01:23:43;;;;;;;;;18.00;15.00;;;;;24.79;43.82;101836.50;5017712;28;45422;-89
2021/09/07 01:26:14;;;;;;;;;15.00;13.50;;;;;24.79;43.04;101835.63;5017068;28;45292;-90
2021/09/07 01:28:42;;;;;;;;;17.25;15.75;;;;;24.79;43.52;101832.97;5016926;28;45239;-87
2021/09/07 01:31:08;;;;;;;;;17.00;15.25;;;;;24.77;43.36;101837.41;5017514;28;45224;-89
2021/09/07 01:33:35;;;;;;;;;21.25;19.00;;;;;24.74;43.27;101827.66;5024461;28;45360;-86
2021/09/07 01:36:02;;;;;;;;;17.25;15.50;;;;;24.69;43.58;101827.66;5022103;28;45437;-87
2021/09/07 01:38:29;;;;;;;;;23.50;18.50;;;;;24.68;43.63;101822.34;5017521;28;45461;-88
2021/09/07 01:40:56;;;;;;;;;16.50;16.00;;;;;24.65;43.63;101825.88;5016899;28;45232;-86
2021/09/07 01:43:22;;;;;;;;;19.25;17.25;;;;;24.62;43.85;101817.03;5017090;28;45927;-90
2021/09/07 01:45:49;;;;;;;;;20.50;19.00;;;;;24.59;43.61;101820.53;5017664;28;45173;-86
2021/09/07 01:48:16;;;;;;;;;19.50;17.25;;;;;24.54;43.75;101825.81;5018335;28;45574;-85
2021/09/07 01:50:43;;;;;;;;;19.25;18.25;;;;;24.50;43.89;101825.81;5018623;28;45319;-88
2021/09/07 01:53:08;;;;;;;;;22.00;20.75;;;;;24.45;43.77;101825.78;5016812;28;45322;-83
2021/09/07 01:55:34;;;;;;;;;20.00;16.50;;;;;24.42;44.18;101824.03;5016871;28;45325;-88
2021/09/07 01:57:59;;;;;;;;;18.25;13.25;;;;;24.38;44.40;101824.88;5018479;28;45284;-91
2021/09/07 02:00:25;;;;;;;;;16.25;14.25;;;;;24.40;44.17;101822.28;5028460;28;45550;-92
2021/09/07 02:02:51;;;;;;;;;16.75;15.50;;;;;24.41;44.31;101824.91;5027380;28;45232;-90
2021/09/07 02:05:16;;;;;;;;;15.75;15.00;;;;;24.41;43.86;101822.25;5022784;28;45232;-92
2021/09/07 02:07:42;;;;;;;;;17.25;15.50;;;;;24.39;43.66;101823.16;5021070;28;45301;-91
2021/09/07 02:10:08;;;;;;;;;14.25;14.25;;;;;24.36;44.29;101818.69;5039576;28;45564;-92
2021/09/07 02:12:34;;;;;;;;;14.50;13.25;;;;;24.34;43.96;101820.47;5054901;28;46060;-83
2021/09/07 02:15:00;;;;;;;;;14.50;13.00;;;;;24.32;44.21;101821.34;5056330;28;45199;-92
2021/09/07 02:17:25;;;;;;;;;14.75;12.25;;;;;24.27;44.31;101822.22;5049714;28;45327;-89
2021/09/07 02:19:52;;;;;;;;;16.25;13.00;;;;;24.28;44.34;101825.72;5042852;28;45363;-90
2021/09/07 02:22:18;;;;;;;;;15.25;14.00;;;;;24.26;44.65;101814.25;5040635;28;45414;-91
2021/09/07 02:24:43;;;;;;;;;15.50;14.50;;;;;24.22;44.79;101809.84;5041510;28;45338;-89
2021/09/07 02:27:09;;;;;;;;;14.25;13.50;;;;;24.18;44.53;101802.75;5047656;28;45310;-91
2021/09/07 02:29:35;;;;;;;;;16.00;15.50;;;;;24.15;44.50;101805.38;5048051;28;45310;-87
2021/09/07 02:32:00;;;;;;;;;16.00;14.50;;;;;24.11;44.60;101807.13;5039746;28;45932;-89
2021/09/07 02:34:26;;;;;;;;;15.00;15.00;;;;;24.09;44.67;101800.94;5025626;28;45356;-87
2021/09/07 02:36:52;;;;;;;;;10.75;10.50;;;;;24.08;44.92;101796.56;5034576;28;45298;-88
2021/09/07 02:39:17;;;;;;;;;15.75;14.00;;;;;24.08;44.89;101794.78;5020547;28;45486;-87
2021/09/07 02:41:43;;;;;;;;;13.75;13.00;;;;;24.08;44.65;101794.78;5019282;28;45375;-84
2021/09/07 02:44:09;;;;;;;;;15.75;13.00;;;;;24.02;44.89;101781.56;5018152;28;45325;-83
2021/09/07 02:46:35;;;;;;;;;16.25;15.00;;;;;23.99;44.72;101781.53;5018696;28;45502;-83
2021/09/07 02:49:01;;;;;;;;;15.00;14.50;;;;;23.99;45.01;101785.91;5018734;28;45406;-88
2021/09/07 02:51:27;;;;;;;;;14.75;13.50;;;;;23.98;45.23;101784.16;5021993;28;45514;-84
2021/09/07 02:53:53;;;;;;;;;15.00;14.25;;;;;23.95;45.31;101787.66;5026541;28;45784;-82
2021/09/07 02:56:18;;;;;;;;;13.75;13.75;;;;;23.94;45.29;101785.88;5027016;28;45319;-90
2021/09/07 02:58:44;;;;;;;;;13.50;12.25;;;;;23.87;44.99;101784.94;5030101;28;45606;-91
2021/09/07 03:01:10;;;;;;;;;16.00;15.00;;;;;23.84;45.65;101782.31;5018860;28;45374;-92
2021/09/07 03:03:36;;;;;;;;;14.75;14.00;;;;;23.79;45.38;101784.94;5019236;28;45350;-93
2021/09/07 03:06:03;;;;;;;;;14.25;13.00;;;;;23.77;45.76;101777.84;5035290;28;45264;-92
2021/09/07 03:08:29;;;;;;;;;15.00;14.25;;;;;23.76;45.61;101770.78;5039422;28;45251;-92
2021/09/07 03:10:56;;;;;;;;;16.50;15.50;;;;;23.78;46.09;101774.31;5030188;28;45401;-90
2021/09/07 03:13:22;;;;;;;;;14.50;11.00;;;;;23.79;45.54;101774.34;5026832;28;45373;-92
2021/09/07 03:15:48;;;;;;;;;17.00;16.25;;;;;23.79;45.65;101771.72;5023779;28;45317;-92
2021/09/07 03:18:14;;;;;;;;;12.75;12.25;;;;;23.79;45.65;101766.41;5026438;28;45497;-92
2021/09/07 03:20:40;;;;;;;;;17.00;16.00;;;;;23.78;45.90;101767.28;5024708;28;45687;-91
2021/09/07 03:23:06;;;;;;;;;13.50;13.00;;;;;23.74;45.79;101767.28;5025974;28;45237;-92
2021/09/07 03:25:31;;;;;;;;;17.25;15.75;;;;;23.68;45.53;101770.75;5020082;28;45233;-92
2021/09/07 03:27:57;;;;;;;;;14.25;12.50;;;;;23.65;46.12;101773.38;5018566;28;45163;-92
2021/09/07 03:30:24;;;;;;;;;17.50;15.50;;;;;23.62;46.51;101776.91;5020699;28;45219;-92
2021/09/07 03:32:51;;;;;;;;;18.75;16.50;;;;;23.60;46.31;101768.06;5039127;28;45884;-85
2021/09/07 03:35:17;;;;;;;;;18.50;16.25;;;;;23.62;46.54;101768.06;5033281;28;45295;-89
2021/09/07 03:37:44;;;;;;;;;18.50;15.75;;;;;23.62;46.53;101763.69;5023017;28;45323;-89
2021/09/07 03:40:10;;;;;;;;;16.75;14.75;;;;;23.65;46.27;101760.16;5020101;28;45448;-87
2021/09/07 03:42:36;;;;;;;;;11.00;11.00;;;;;23.68;46.26;101764.56;5020808;28;45762;-92
2021/09/07 03:45:04;;;;;;;;;16.25;15.50;;;;;23.69;46.25;101761.97;5036583;28;45276;-91
2021/09/07 03:47:30;;;;;;;;;15.50;15.50;;;;;23.69;46.15;101761.97;5022991;28;45229;-86
2021/09/07 03:49:55;;;;;;;;;13.00;13.00;;;;;23.66;46.03;101756.66;5021580;28;45929;-86
2021/09/07 03:52:21;;;;;;;;;18.00;13.00;;;;;23.68;46.49;101761.94;5022216;28;45388;-86
2021/09/07 03:54:47;;;;;;;;;17.00;16.00;;;;;23.68;46.40;101756.66;5020855;28;45342;-88
2021/09/07 03:57:13;;;;;;;;;13.75;12.75;;;;;23.64;46.29;101750.47;5018984;28;45606;-85
2021/09/07 03:59:38;;;;;;;;;16.75;12.00;;;;;23.60;46.31;101749.56;5028785;28;45319;-85
2021/09/07 04:02:04;;;;;;;;;14.00;13.00;;;;;23.56;46.53;101750.41;5021293;28;45302;-88
2021/09/07 04:04:30;;;;;;;;;15.50;15.25;;;;;23.51;46.27;101752.16;5019265;28;45252;-89
2021/09/07 04:06:56;;;;;;;;;15.00;14.00;;;;;23.51;46.65;101760.09;5018220;28;45253;-85
2021/09/07 04:09:23;;;;;;;;;15.50;14.25;;;;;23.52;46.64;101755.66;5017676;28;46737;-86
2021/09/07 04:11:49;;;;;;;;;15.00;13.75;;;;;23.47;46.49;101750.34;5022210;28;45677;-83
2021/09/07 04:14:15;;;;;;;;;16.00;14.00;;;;;23.43;46.69;101752.09;5026166;28;45390;-83
2021/09/07 04:16:41;;;;;;;;;17.00;13.00;;;;;23.39;46.69;101752.94;5025192;28;45243;-88
2021/09/07 04:19:07;;;;;;;;;17.50;16.00;;;;;23.39;46.64;101760.88;5021120;28;46133;-87
2021/09/07 04:21:32;;;;;;;;;14.50;12.25;;;;;23.39;46.54;101760.88;5016841;28;45385;-84
2021/09/07 04:23:58;;;;;;;;;18.75;17.00;;;;;23.37;46.78;101757.38;5017356;28;45292;-91
2021/09/07 04:26:23;;;;;;;;;16.75;13.50;;;;;23.34;46.75;101759.97;5020462;28;45357;-86
2021/09/07 04:28:49;;;;;;;;;13.25;13.25;;;;;23.36;46.97;101766.16;5016474;28;46206;-83
2021/09/07 04:31:16;;;;;;;;;16.25;15.25;;;;;23.33;46.79;101766.13;5017469;28;45299;-88
2021/09/07 04:33:42;;;;;;;;;17.25;14.75;;;;;23.33;47.16;101768.78;5027733;28;45449;-88
2021/09/07 04:36:08;;;;;;;;;13.50;11.75;;;;;23.31;47.24;101774.06;5041839;28;45456;-84
2021/09/07 04:38:33;;;;;;;;;17.00;15.00;;;;;23.30;46.71;101772.28;5043140;28;45448;-86
2021/09/07 04:40:59;;;;;;;;;19.50;17.25;;;;;23.31;47.16;101781.09;5042726;28;45267;-86
2021/09/07 04:43:24;;;;;;;;;20.00;15.75;;;;;23.29;46.75;101780.19;5018416;28;45441;-87
2021/09/07 04:45:50;;;;;;;;;15.00;15.00;;;;;23.30;47.16;101787.25;5019958;28;45468;-84
2021/09/07 04:48:16;;;;;;;;;17.00;14.50;;;;;23.27;47.35;101788.09;5033939;28;46616;-91
2021/09/07 04:50:41;;;;;;;;;19.25;16.00;;;;;23.26;47.32;101786.34;5022858;28;45468;-91
2021/09/07 04:53:07;;;;;;;;;15.50;14.50;;;;;23.22;47.11;101776.59;5022797;28;45353;-89
2021/09/07 04:55:33;;;;;;;;;14.00;12.50;;;;;23.23;47.60;101778.38;5023378;28;45577;-90
2021/09/07 04:57:58;;;;;;;;;15.75;14.50;;;;;23.22;47.42;101784.53;5022731;28;46660;-89
2021/09/07 05:00:24;;;;;;;;;17.25;15.75;;;;;23.19;47.50;101790.69;5024340;28;45343;-90
2021/09/07 05:02:49;;;;;;;;;18.50;16.00;;;;;23.19;47.58;101789.81;5043467;28;44716;-83
2021/09/07 05:05:15;;;;;;;;;19.50;17.25;;;;;23.20;47.42;101794.22;5056923;28;44847;-82
2021/09/07 05:07:41;;;;;;;;;22.00;17.50;;;;;23.16;47.27;101779.19;5047750;28;45881;-81
2021/09/07 05:10:07;;;;;;;;;16.00;15.25;;;;;23.12;47.72;101780.91;5044336;28;45264;-83
2021/09/07 05:12:33;;;;;;;;;19.00;17.75;;;;;23.12;47.72;101793.22;5040654;28;45335;-85
2021/09/07 05:14:59;;;;;;;;;18.75;14.50;;;;;23.10;47.85;101795.88;5041494;28;45586;-86
2021/09/07 05:17:24;;;;;;;;;16.50;14.50;;;;;23.03;47.82;101784.34;5038628;28;45760;-88
2021/09/07 05:19:50;;;;;;;;;21.25;17.00;;;;;23.03;48.00;101787.00;5036215;28;45393;-85
2021/09/07 05:22:16;;;;;;;;;22.00;20.00;;;;;23.02;48.08;101789.63;5037372;28;45337;-86
2021/09/07 05:24:42;;;;;;;;;23.00;18.25;;;;;23.00;47.96;101788.72;5037059;28;45490;-85
2021/09/07 05:27:07;;;;;;;;;14.00;14.00;;;;;23.01;48.16;101798.44;5034536;28;46625;-85
2021/09/07 05:29:33;;;;;;;;;19.00;16.00;;;;;22.97;48.08;101793.97;5028389;28;45503;-84
2021/09/07 05:31:59;;;;;;;;;17.50;15.25;;;;;22.96;48.24;101798.38;5028973;28;45410;-84
2021/09/07 05:34:24;;;;;;;;;16.00;14.75;;;;;22.95;48.08;101793.06;5035769;28;45386;-90
2021/09/07 05:36:50;;;;;;;;;19.25;17.25;;;;;22.92;48.12;101801.00;5037572;28;46404;-86
2021/09/07 05:39:15;;;;;;;;;17.00;15.25;;;;;22.92;48.46;101795.72;5030832;28;45442;-86
2021/09/07 05:41:41;;;;;;;;;20.00;18.50;;;;;22.92;48.26;101799.22;5034358;28;45485;-88
2021/09/07 05:44:07;;;;;;;;;17.00;17.00;;;;;22.90;48.59;101797.44;5037063;28;45673;-87
2021/09/07 05:46:34;;;;;;;;;19.25;17.75;;;;;22.90;48.31;101800.94;5043863;28;45493;-89
2021/09/07 05:48:59;;;;;;;;;18.75;17.00;;;;;22.84;48.58;101796.50;5045690;28;45780;-84
2021/09/07 05:51:25;;;;;;;;;19.25;16.75;;;;;22.86;48.60;101802.69;5039707;28;45490;-83
2021/09/07 05:53:50;;;;;;;;;15.00;13.50;;;;;22.84;48.84;101811.47;5040399;28;45538;-81
2021/09/07 05:56:17;;;;;;;;;17.50;15.00;;;;;22.84;48.67;101801.78;5042153;28;45852;-82
2021/09/07 05:58:43;;;;;;;;;20.50;16.75;;;;;22.87;48.65;101808.88;5041331;28;45441;-82
2021/09/07 06:01:09;;;;;;;;;19.50;19.00;;;;;22.87;48.31;101806.22;5048089;28;45324;-81
2021/09/07 06:03:34;;;;;;;;;25.50;19.00;;;;;22.84;48.54;101804.41;5033863;28;45485;-82
2021/09/07 06:06:00;;;;;;;;;16.00;14.75;;;;;22.82;48.66;101803.56;5027856;28;46543;-82
2021/09/07 06:08:28;;;;;;;;;17.50;17.50;;;;;22.85;48.43;101803.56;5029231;28;45273;-84
2021/09/07 06:10:53;;;;;;;;;18.25;17.50;;;;;22.87;48.42;101798.31;5052661;28;45330;-84
2021/09/07 06:13:21;;;;;;;;;20.25;18.50;;;;;22.88;48.63;101805.38;5047475;28;45228;-84
2021/09/07 06:15:46;;;;;;;;;21.75;20.75;;;;;22.89;48.55;101799.22;5054858;28;45430;-81
2021/09/07 06:18:15;;;;;;;;;19.25;18.25;;;;;22.90;48.01;101792.16;5035570;28;45385;-80
2021/09/07 06:20:41;;;;;;;;;19.25;16.50;;;;;22.93;48.45;101794.84;5028264;28;45472;-82
2021/09/07 06:23:06;;;;;;;;;19.50;16.25;;;;;22.94;48.34;101793.97;5019387;28;45510;-84
2021/09/07 06:25:32;;;;;;;;;18.25;14.25;;;;;22.96;48.11;101792.22;5019256;28;47913;-80
2021/09/07 06:27:58;;;;;;;;;18.75;17.25;;;;;22.99;48.03;101798.44;5029393;28;45457;-80
2021/09/07 06:30:23;;;;;;;;;20.25;18.00;;;;;22.99;48.37;101803.72;5056015;28;45382;-81
2021/09/07 06:32:49;;;;;;;;;17.50;16.75;;;;;23.00;47.80;101807.22;5022632;28;45488;-81
2021/09/07 06:35:14;;;;;;;;;22.25;16.50;;;;;23.00;48.28;101807.22;5026279;28;45520;-84
2021/09/07 06:37:42;;;;;;;;;18.00;16.25;;;;;23.02;48.09;101813.41;5018200;28;45372;-83
2021/09/07 06:40:08;;;;;;;;;18.00;16.50;;;;;23.00;48.22;101807.22;5021501;28;45452;-84
2021/09/07 06:42:34;;;;;;;;;19.75;16.75;;;;;22.98;48.21;101815.13;5039662;28;45546;-82
2021/09/07 06:45:00;;;;;;;;;17.50;16.75;;;;;22.98;48.09;101815.13;5029487;28;46032;-82
2021/09/07 06:47:26;;;;;;;;;21.00;19.25;;;;;23.00;48.41;101812.50;5033393;28;45420;-82
2021/09/07 06:49:51;;;;;;;;;26.25;19.50;;;;;23.00;48.20;101815.16;5057002;28;45184;-81
2021/09/07 06:52:17;;;;;;;;;16.75;14.75;;;;;23.00;48.46;101815.16;5044812;28;45219;-82
2021/09/07 06:54:42;;;;;;;;;21.25;19.00;;;;;23.01;48.36;101816.91;5045482;28;45263;-81
2021/09/07 06:57:08;;;;;;;;;21.00;20.00;;;;;23.01;48.29;101816.91;5044331;28;45153;-81
2021/09/07 06:59:33;;;;;;;;;24.00;21.25;;;;;22.99;48.23;101811.63;5039398;28;45290;-81
2021/09/07 07:01:59;;;;;;;;;21.50;20.75;;;;;22.99;48.37;101811.63;5038866;28;46039;-80
2021/09/07 07:04:25;;;;;;;;;20.00;17.50;;;;;23.00;48.80;101817.78;5021558;28;45457;-83
2021/09/07 07:06:50;;;;;;;;;17.75;16.50;;;;;23.02;48.41;101819.56;5017815;28;45453;-82
2021/09/07 07:09:16;;;;;;;;;21.50;21.25;;;;;23.02;48.34;101816.06;5025857;28;45473;-84
2021/09/07 07:11:41;;;;;;;;;23.25;18.75;;;;;23.01;48.21;101816.91;5018288;28;45619;-82
2021/09/07 07:14:07;;;;;;;;;20.75;17.50;;;;;23.01;48.48;101816.91;5016010;28;46996;-81
2021/09/07 07:16:33;;;;;;;;;26.00;23.75;;;;;23.07;48.48;101826.66;5018362;28;45406;-83
2021/09/07 07:18:58;;;;;;;;;24.75;20.50;;;;;23.09;48.14;101820.50;5039665;28;45267;-83
2021/09/07 07:21:24;;;;;;;;;20.25;16.75;;;;;23.12;48.34;101823.19;5044136;28;45496;-82
2021/09/07 07:23:49;;;;;;;;;21.25;19.25;;;;;23.14;48.20;101823.19;5037356;28;45482;-82
2021/09/07 07:26:16;;;;;;;;;19.75;17.00;;;;;23.15;47.98;101828.50;5037780;28;45239;-82
2021/09/07 07:28:41;;;;;;;;;19.75;16.25;;;;;23.17;48.22;101839.94;5037764;28;45265;-82
2021/09/07 07:31:07;;;;;;;;;22.50;20.75;;;;;23.19;48.24;101832.09;5037349;28;45505;-81
2021/09/07 07:33:33;;;;;;;;;25.00;20.25;;;;;23.23;48.02;101833.00;5036650;28;46033;-81
2021/09/07 07:35:58;;;;;;;;;23.50;21.75;;;;;23.24;47.79;101830.34;5037274;28;45228;-82
2021/09/07 07:38:24;;;;;;;;;22.00;18.00;;;;;23.25;47.83;101844.47;5037430;28;45407;-82
2021/09/07 07:40:49;;;;;;;;;20.50;19.50;;;;;23.29;48.23;101833.03;5037591;28;45288;-82
2021/09/07 07:43:15;;;;;;;;;19.50;18.75;;;;;23.33;47.64;101832.19;5037396;28;46055;-81
2021/09/07 07:45:41;;;;;;;;;20.00;16.50;;;;;23.38;47.83;101835.75;5038260;28;45431;-82
2021/09/07 07:48:06;;;;;;;;;20.75;19.50;;;;;23.42;47.60;101831.38;5044915;28;45314;-82
2021/09/07 07:50:32;;;;;;;;;20.25;19.25;;;;;23.47;47.22;101829.66;5055545;28;45406;-82
2021/09/07 07:53:02;;;;;;;;;21.25;15.75;;;;;23.51;47.41;101831.47;5038381;28;45421;-82
2021/09/07 07:55:28;;;;;;;;;17.00;17.00;;;;;23.55;46.75;101830.59;5038299;28;45461;-82
2021/09/07 07:57:53;;;;;;;;;19.75;19.00;;;;;23.57;47.58;101834.13;5037886;28;45239;-82
2021/09/07 08:00:19;;;;;;;;;19.75;18.00;;;;;23.61;47.03;101837.69;5039581;28;45542;-82
2021/09/07 08:02:45;;;;;;;;;20.50;18.75;;;;;23.62;46.79;101829.78;5037308;28;46113;-82
2021/09/07 08:05:11;;;;;;;;;22.25;20.75;;;;;23.70;46.85;101836.88;5035855;28;45398;-82
2021/09/07 08:07:36;;;;;;;;;20.00;19.25;;;;;23.73;46.72;101829.84;5037931;28;45342;-82
2021/09/07 08:10:02;;;;;;;;;17.00;16.75;;;;;23.77;46.45;101833.38;5038437;28;45330;-81
2021/09/07 08:12:28;;;;;;;;;17.75;16.00;;;;;23.79;46.31;101834.28;5037128;28;45546;-82
2021/09/07 08:14:54;;;;;;;;;20.25;19.75;;;;;23.81;46.23;101827.25;5044128;28;45428;-81
2021/09/07 08:17:19;;;;;;;;;25.50;20.75;;;;;23.87;46.44;101835.19;5039397;28;45373;-81
2021/09/07 08:19:45;;;;;;;;;23.00;19.75;;;;;23.91;46.42;101833.47;5037043;28;45229;-81
2021/09/07 08:22:12;;;;;;;;;20.25;19.00;;;;;23.95;46.41;101830.00;5036104;28;45876;-81
2021/09/07 08:24:38;;;;;;;;;19.50;17.75;;;;;23.99;46.25;101823.84;5034776;28;45864;-81
2021/09/07 08:27:04;;;;;;;;;21.25;18.50;;;;;24.03;46.46;101830.91;5036236;28;45258;-81
2021/09/07 08:29:29;;;;;;;;;21.00;18.50;;;;;24.09;45.63;101830.06;5036436;28;45288;-82
2021/09/07 08:31:55;;;;;;;;;24.50;17.25;;;;;24.11;45.84;101834.50;5036752;28;45846;-81
2021/09/07 08:34:21;;;;;;;;;18.50;17.00;;;;;24.14;45.17;101836.25;5051825;28;45478;-81
2021/09/07 08:36:46;;;;;;;;;19.75;18.25;;;;;24.16;45.51;101828.31;5037895;28;45574;-82
2021/09/07 08:39:15;;;;;;;;;20.00;17.75;;;;;24.21;45.22;101835.41;5040539;28;45338;-81
2021/09/07 08:41:42;;;;;;;;;20.25;17.50;;;;;24.24;45.47;101838.06;5043263;28;45200;-81
2021/09/07 08:44:08;;;;;;;;;20.00;19.00;;;;;24.29;45.27;101834.56;5037520;28;45722;-81
2021/09/07 08:46:33;;;;;;;;;19.50;15.75;;;;;24.32;44.89;101829.28;5037015;28;45295;-82
2021/09/07 08:48:59;;;;;;;;;16.00;14.25;;;;;24.35;45.34;101827.50;5037085;28;45616;-81
2021/09/07 08:51:25;;;;;;;;;19.50;17.50;;;;;24.36;45.36;101826.63;5036307;28;45342;-81
2021/09/07 08:53:53;;;;;;;;;18.75;17.25;;;;;24.41;44.96;101834.59;5035648;28;45386;-82
2021/09/07 08:56:19;;;;;;;;;23.50;20.75;;;;;24.42;44.77;101837.28;5036447;28;45493;-82
2021/09/07 08:58:45;;;;;;;;;18.00;17.00;;;;;24.47;45.11;101839.03;5035018;28;45235;-82
2021/09/07 09:01:12;;;;;;;;;16.75;16.00;;;;;24.50;45.67;101833.75;5035004;28;45886;-82
2021/09/07 09:03:40;;;;;;;;;23.00;18.50;;;;;24.54;44.66;101832.91;5037043;28;45272;-81
2021/09/07 09:06:06;;;;;;;;;21.50;17.25;;;;;24.55;44.65;101827.59;5039910;28;45410;-81
2021/09/07 09:08:33;;;;;;;;;18.50;16.75;;;;;24.59;45.00;101836.41;5043499;28;45410;-81
2021/09/07 09:11:07;;;;;;;;;20.75;19.00;;;;;24.63;44.62;101834.66;5041123;28;46283;-79
2021/09/07 09:13:45;;;;;;;;;22.50;19.25;;;;;24.65;44.33;101836.47;5038598;28;45379;-81
2021/09/07 09:16:11;;;;;;;;;19.75;15.00;;;;;24.69;44.45;101837.38;5039100;28;45460;-81
2021/09/07 09:18:39;;;;;;;;;20.75;19.75;;;;;24.72;44.46;101842.69;5040929;28;45475;-81
2021/09/07 09:21:30;;;;;;;;;23.00;23.00;;;;;24.74;44.22;101840.91;5041176;28;46527;-82
2021/09/07 09:24:20;;;;;;;;;23.75;19.25;;;;;24.78;44.82;101841.81;5037550;28;45823;-82
2021/09/07 09:26:53;;;;;;;;;23.75;21.75;;;;;24.80;44.51;101838.28;5040160;28;45314;-82
2021/09/07 09:29:43;;;;;;;;;21.25;18.25;;;;;24.83;44.17;101848.91;5039442;28;45531;-82
2021/09/07 09:32:14;;;;;;;;;19.25;17.00;;;;;24.87;44.56;101837.41;5039360;28;46640;-83
2021/09/07 09:34:42;;;;;;;;;22.50;16.50;;;;;24.92;43.63;101839.19;5040781;28;45980;-82
2021/09/07 09:37:15;;;;;;;;;20.25;16.25;;;;;24.95;44.04;101832.13;5045516;28;45348;-82
2021/09/07 09:39:51;;;;;;;;;17.00;15.25;;;;;24.98;43.57;101832.13;5040928;28;45353;-82
2021/09/07 09:42:30;;;;;;;;;15.50;15.00;;;;;25.02;43.62;101827.72;5037911;28;47081;-82
2021/09/07 09:45:03;;;;;;;;;19.50;14.00;;;;;25.06;42.92;101826.81;5054103;28;45268;-82
2021/09/07 09:47:41;;;;;;;;;14.75;13.25;;;;;25.11;42.22;101821.53;5039104;28;45333;-81
2021/09/07 09:50:08;;;;;;;;;13.75;12.00;;;;;25.13;42.18;101817.09;5039045;28;45329;-82
2021/09/07 09:52:36;;;;;;;;;15.25;13.50;;;;;25.16;42.05;101815.34;5038495;28;46468;-82
2021/09/07 09:55:04;;;;;;;;;16.75;15.00;;;;;25.19;42.65;101812.69;5038963;28;45436;-82
2021/09/07 09:57:30;;;;;;;;;12.00;11.00;;;;;25.23;42.80;101802.09;5040687;28;45436;-82
2021/09/07 09:59:56;;;;;;;;;15.00;14.00;;;;;25.23;42.53;101802.97;5045297;28;45631;-82
2021/09/07 10:02:23;;;;;;;;;19.50;15.00;;;;;25.29;41.68;101804.72;5046329;28;45315;-81
2021/09/07 10:04:50;;;;;;;;;13.50;12.50;;;;;25.31;41.30;101798.56;5044056;28;45658;-82
2021/09/07 10:07:17;;;;;;;;;17.75;16.75;;;;;25.37;41.51;101791.47;5041722;28;45286;-80
2021/09/07 10:09:44;;;;;;;;;17.50;17.00;;;;;25.41;41.07;101798.59;5046096;28;45564;-80
2021/09/07 10:12:14;;;;;;;;;16.25;14.50;;;;;25.42;41.36;101793.28;5041156;28;45983;-81
2021/09/07 10:14:50;;;;;;;;;16.00;13.75;;;;;25.47;41.33;101783.56;5040240;28;45880;-82
2021/09/07 10:17:27;;;;;;;;;14.25;12.75;;;;;25.48;41.44;101784.44;5042738;28;45365;-81
2021/09/07 10:21:03;;;;;;;;;15.00;15.00;;;;;25.53;40.64;101776.47;5039799;28;45431;-81
2021/09/07 10:25:59;;;;;;;;;20.25;17.00;;;;;25.65;40.83;101776.44;5043672;28;45270;-81
2021/09/07 10:28:40;;;;;;;;;16.00;14.50;;;;;25.68;40.43;101764.94;5047558;28;45431;-81
2021/09/07 10:31:08;;;;;;;;;12.50;12.00;;;;;25.71;40.07;101755.19;5043920;28;45287;-81
2021/09/07 10:33:36;;;;;;;;;16.50;13.50;;;;;25.76;39.98;101757.81;5038803;28;45511;-81
2021/09/07 10:36:08;;;;;;;;;15.75;12.00;;;;;25.83;38.73;101750.72;5038021;28;45885;-81
2021/09/07 10:38:41;;;;;;;;;13.00;12.00;;;;;25.91;39.07;101748.94;5038424;28;45270;-81
2021/09/07 10:41:08;;;;;;;;;17.00;15.25;;;;;25.94;39.56;101749.81;5038323;28;45243;-81
2021/09/07 10:43:50;;;;;;;;;14.00;13.25;;;;;25.97;39.44;101735.66;5038076;28;46670;-81
2021/09/07 10:46:17;;;;;;;;;23.50;20.75;;;;;26.00;39.38;101748.00;5038420;28;45251;-82
2021/09/07 10:48:43;;;;;;;;;17.75;16.75;;;;;26.05;39.08;101738.28;5038282;28;45173;-81
2021/09/07 10:51:09;;;;;;;;;18.00;16.00;;;;;26.08;39.00;101724.97;5038496;28;45341;-81
2021/09/07 10:53:34;;;;;;;;;12.25;11.75;;;;;26.17;38.80;101730.28;5044046;28;46080;-81
2021/09/07 10:56:24;;;;;;;;;11.75;11.75;;;;;26.23;38.90;101718.75;5046405;28;45373;-81
2021/09/07 10:58:49;;;;;;;;;13.50;12.25;;;;;26.26;38.80;101714.28;5041979;28;45416;-81
2021/09/07 11:01:30;;;;;;;;;17.00;15.50;;;;;26.31;38.18;101718.66;5042299;28;45322;-83
2021/09/07 11:04:33;;;;;;;;;16.25;16.00;;;;;26.37;38.41;101702.72;5037610;28;45507;-81
2021/09/07 11:07:01;;;;;;;;;20.00;17.25;;;;;26.41;38.06;101704.44;5037496;28;45236;-82
2021/09/07 11:09:52;;;;;;;;;15.00;14.75;;;;;26.47;38.69;101696.44;5038567;28;45383;-81
2021/09/07 11:12:33;;;;;;;;;17.00;16.25;;;;;26.53;38.33;101696.38;5039317;28;45223;-82